createdAt,value
2023-03-28T00:01:56.291Z,95.71
2023-03-28T00:06:00.871Z,95.69
2023-03-28T00:10:03.879Z,96.02
2023-03-28T00:14:08.314Z,95.98
2023-03-28T00:18:13.192Z,96.60
2023-03-28T00:22:15.997Z,96.67
2023-03-28T00:26:19.221Z,95.86
2023-03-28T00:30:21.313Z,96.28
2023-03-28T00:34:24.163Z,95.00
2023-03-28T00:38:27.531Z,94.24
2023-03-28T00:42:30.662Z,92.95
2023-03-28T00:46:39.664Z,92.50
2023-03-28T00:50:46.934Z,92.26
2023-03-28T00:54:49.187Z,91.41
2023-03-28T00:58:53.121Z,90.75
2023-03-28T01:02:57.269Z,89.80
2023-03-28T01:06:59.541Z,90.07
2023-03-28T01:11:02.297Z,90.39
2023-03-28T01:15:04.883Z,90.65
2023-03-28T01:19:42.942Z,90.99
2023-03-28T01:23:48.101Z,91.23
2023-03-28T01:28:26.638Z,91.07
2023-03-28T01:33:14.620Z,91.00
2023-03-28T01:37:32.554Z,90.32
2023-03-28T01:41:55.315Z,89.73
2023-03-28T01:46:07.159Z,90.07
2023-03-28T01:50:39.438Z,90.73
2023-03-28T01:54:44.910Z,90.55
2023-03-28T01:58:54.267Z,91.77
2023-03-28T02:03:22.764Z,91.82
2023-03-28T02:07:28.909Z,91.63
2023-03-28T02:11:43.601Z,90.57
2023-03-28T02:15:59.358Z,92.13
2023-03-28T02:20:16.019Z,92.11
2023-03-28T02:24:33.112Z,92.15
2023-03-28T02:28:57.091Z,91.70
2023-03-28T02:33:10.462Z,92.08
2023-03-28T02:37:28.028Z,92.18
2023-03-28T02:41:56.920Z,93.02
2023-03-28T02:46:05.246Z,92.76
2023-03-28T02:50:22.190Z,93.04
2023-03-28T02:54:31.831Z,93.45
2023-03-28T02:59:13.392Z,93.36
2023-03-28T03:03:16.846Z,93.53
2023-03-28T03:07:19.404Z,93.97
2023-03-28T03:11:21.447Z,94.71
2023-03-28T03:15:23.437Z,95.18
2023-03-28T03:19:30.322Z,95.17
2023-03-28T03:23:32.557Z,96.17
2023-03-28T03:27:37.021Z,96.61
2023-03-28T03:31:43.199Z,96.85
2023-03-28T03:36:09.999Z,97.29
2023-03-28T03:40:12.830Z,99.31
2023-03-28T03:44:16.757Z,98.38
2023-03-28T03:48:18.907Z,98.41
2023-03-28T03:52:21.010Z,98.54
2023-03-28T03:56:23.898Z,98.31
2023-03-28T04:00:31.749Z,98.23
2023-03-28T04:04:33.803Z,98.82
2023-03-28T04:08:46.492Z,98.77
2023-03-28T04:12:56.218Z,98.68
2023-03-28T04:16:58.317Z,98.92
2023-03-28T04:21:03.744Z,99.71
2023-03-28T04:25:17.735Z,99.63
2023-03-28T04:29:25.000Z,100.00
2023-03-28T04:33:46.315Z,100.00
2023-03-28T04:37:50.881Z,100.00
2023-03-28T04:41:55.603Z,100.00
2023-03-28T04:46:04.919Z,100.00
2023-03-28T04:50:11.017Z,99.96
2023-03-28T04:54:13.141Z,99.46
2023-03-28T04:58:23.138Z,98.51
2023-03-28T05:02:26.140Z,97.97
2023-03-28T05:06:40.021Z,97.69
2023-03-28T05:10:44.000Z,97.43
2023-03-28T05:14:46.505Z,97.44
2023-03-28T05:18:51.362Z,97.01
2023-03-28T05:22:58.906Z,97.87
2023-03-28T05:27:01.262Z,98.50
2023-03-28T05:31:03.546Z,97.67
2023-03-28T05:35:08.933Z,96.78
2023-03-28T05:39:11.754Z,96.41
2023-03-28T05:43:14.955Z,94.81
2023-03-28T05:47:17.216Z,93.01
2023-03-28T05:51:19.250Z,92.16
2023-03-28T05:55:22.270Z,93.51
2023-03-28T05:59:24.937Z,90.26
2023-03-28T06:03:28.093Z,88.39
2023-03-28T06:07:41.535Z,87.32
2023-03-28T06:11:46.420Z,87.47
2023-03-28T06:15:48.393Z,86.38
2023-03-28T06:19:51.808Z,85.07
2023-03-28T06:23:54.866Z,84.79
2023-03-28T06:28:01.975Z,83.53
2023-03-28T06:32:05.699Z,83.05
2023-03-28T06:36:08.901Z,82.52
2023-03-28T06:40:11.548Z,83.68
2023-03-28T06:44:14.122Z,82.19
2023-03-28T06:48:41.684Z,82.03
2023-03-28T06:52:52.825Z,78.29
2023-03-28T06:56:54.990Z,77.08
2023-03-28T07:01:00.483Z,77.75
2023-03-28T07:05:08.543Z,76.64
2023-03-28T07:09:10.953Z,76.84
2023-03-28T07:13:22.488Z,75.57
2023-03-28T07:17:32.828Z,77.54
2023-03-28T07:21:34.888Z,77.18
2023-03-28T07:25:39.025Z,77.27
2023-03-28T07:29:41.132Z,76.07
2023-03-28T07:33:43.256Z,75.48
2023-03-28T07:37:47.295Z,76.51
2023-03-28T07:42:12.024Z,76.74
2023-03-28T07:46:16.040Z,75.28
2023-03-28T07:50:19.049Z,74.25
2023-03-28T07:54:21.674Z,74.86
2023-03-28T07:58:24.281Z,74.56
2023-03-28T08:02:26.946Z,72.18
2023-03-28T08:06:32.447Z,72.14
2023-03-28T08:10:36.894Z,71.01
2023-03-28T08:14:39.364Z,67.29
2023-03-28T08:18:41.453Z,67.73
2023-03-28T08:22:43.486Z,67.66
2023-03-28T08:27:11.590Z,67.37
2023-03-28T08:31:16.283Z,66.76
2023-03-28T08:35:24.693Z,64.88
2023-03-28T08:39:30.346Z,64.53
2023-03-28T08:43:50.828Z,64.03
2023-03-28T08:48:07.434Z,58.79
2023-03-28T08:52:16.092Z,60.09
2023-03-28T08:56:18.456Z,59.35
2023-03-28T09:00:27.555Z,57.76
2023-03-28T09:04:35.523Z,58.59
2023-03-28T09:09:04.602Z,58.62
2023-03-28T09:13:19.408Z,55.49
2023-03-28T09:17:43.561Z,55.18
2023-03-28T09:22:15.849Z,55.28
2023-03-28T09:26:34.693Z,53.22
2023-03-28T09:30:46.983Z,53.35
2023-03-28T09:34:51.139Z,51.93
2023-03-28T09:39:06.188Z,53.44
2023-03-28T09:43:16.872Z,54.63
2023-03-28T09:47:30.394Z,53.02
2023-03-28T09:51:38.335Z,52.29
2023-03-28T09:55:40.886Z,51.27
2023-03-28T09:59:43.146Z,51.22
2023-03-28T10:03:54.466Z,50.66
2023-03-28T10:08:21.264Z,49.10
2023-03-28T10:12:38.238Z,48.64
2023-03-28T10:16:41.646Z,47.95
2023-03-28T10:20:48.754Z,47.99
2023-03-28T10:24:51.482Z,47.71
2023-03-28T10:28:57.441Z,48.42
2023-03-28T10:33:20.964Z,47.83
2023-03-28T10:37:42.257Z,47.26
2023-03-28T10:42:05.691Z,45.26
2023-03-28T10:46:36.172Z,44.51
2023-03-28T10:51:08.592Z,43.90
2023-03-28T10:55:19.913Z,45.10
2023-03-28T10:59:49.721Z,44.16
2023-03-28T11:04:08.071Z,43.47
2023-03-28T11:08:32.812Z,42.37
2023-03-28T11:13:07.818Z,40.49
2023-03-28T11:17:46.201Z,40.26
2023-03-28T11:21:58.925Z,40.66
2023-03-28T11:26:14.601Z,39.46
2023-03-28T11:30:59.844Z,39.71
2023-03-28T11:35:17.736Z,37.46
2023-03-28T11:39:29.918Z,37.44
2023-03-28T11:43:46.596Z,37.78
2023-03-28T11:47:55.243Z,39.12
2023-03-28T11:52:17.422Z,39.04
2023-03-28T11:56:28.082Z,38.30
2023-03-28T12:00:46.262Z,40.32
2023-03-28T12:05:26.041Z,41.02
2023-03-28T12:09:40.604Z,40.50
2023-03-28T12:14:11.126Z,40.50
2023-03-28T12:19:01.432Z,40.51
2023-03-28T12:23:24.490Z,41.41
2023-03-28T12:28:04.159Z,40.88
2023-03-28T12:32:25.989Z,40.37
2023-03-28T12:36:36.613Z,39.66
2023-03-28T12:40:47.166Z,39.71
2023-03-28T12:45:06.646Z,39.72
2023-03-28T12:49:14.029Z,40.15
2023-03-28T12:53:17.157Z,40.58
2023-03-28T12:57:43.752Z,40.07
2023-03-28T13:01:56.935Z,39.74
2023-03-28T13:06:14.347Z,39.60
2023-03-28T13:10:42.606Z,39.32
2023-03-28T13:14:58.737Z,37.93
2023-03-28T13:19:10.046Z,39.13
2023-03-28T13:23:14.914Z,38.39
2023-03-28T13:27:32.675Z,37.54
2023-03-28T13:31:34.910Z,36.78
2023-03-28T13:35:47.325Z,36.61
2023-03-28T13:39:59.601Z,35.85
2023-03-28T13:44:14.599Z,35.54
2023-03-28T13:48:17.328Z,34.21
2023-03-28T13:52:23.021Z,34.30
2023-03-28T13:56:29.119Z,35.35
2023-03-28T14:00:32.094Z,34.47
2023-03-28T14:04:34.943Z,36.03
2023-03-28T14:08:37.046Z,36.41
2023-03-28T14:12:39.322Z,35.66
2023-03-28T14:16:43.945Z,36.57
2023-03-28T14:20:46.786Z,36.65
2023-03-28T14:24:54.453Z,37.15
2023-03-28T14:29:25.881Z,37.44
2023-03-28T14:33:37.034Z,38.37
2023-03-28T14:37:47.420Z,39.40
2023-03-28T14:41:49.472Z,39.84
2023-03-28T14:45:54.111Z,40.38
2023-03-28T14:49:56.587Z,40.54
2023-03-28T14:53:58.693Z,40.28
2023-03-28T14:58:02.231Z,40.31
2023-03-28T15:02:05.694Z,41.15
2023-03-28T15:06:13.994Z,41.31
2023-03-28T15:10:19.638Z,40.95
2023-03-28T15:14:36.048Z,40.00
2023-03-28T15:18:47.008Z,39.94
2023-03-28T15:22:52.511Z,40.00
2023-03-28T15:27:01.699Z,41.75
2023-03-28T15:31:04.240Z,42.33
2023-03-28T15:35:23.523Z,45.92
2023-03-28T15:39:31.951Z,43.36
2023-03-28T15:44:00.287Z,42.20
2023-03-28T15:48:02.353Z,42.16
2023-03-28T15:52:23.354Z,41.84
2023-03-28T15:56:29.050Z,42.51
2023-03-28T16:00:34.674Z,42.43
2023-03-28T16:04:36.758Z,42.97
2023-03-28T16:08:47.494Z,43.20
2023-03-28T16:12:52.869Z,43.63
2023-03-28T16:17:13.934Z,43.43
2023-03-28T16:21:27.059Z,43.44
2023-03-28T16:25:29.394Z,43.47
2023-03-28T16:29:31.700Z,43.71
2023-03-28T16:33:33.818Z,43.68
2023-03-28T16:37:35.850Z,43.78
2023-03-28T16:41:37.984Z,44.21
2023-03-28T16:45:40.331Z,44.24
2023-03-28T16:49:42.329Z,44.59
2023-03-28T16:53:44.375Z,44.97
2023-03-28T16:57:46.565Z,45.54
2023-03-28T17:01:48.979Z,45.67
2023-03-28T17:05:51.068Z,45.86
2023-03-28T17:09:53.098Z,46.01
2023-03-28T17:13:55.289Z,46.09
2023-03-28T17:17:58.119Z,46.63
2023-03-28T17:22:00.940Z,46.81
2023-03-28T17:26:03.762Z,47.06
2023-03-28T17:30:07.045Z,47.40
2023-03-28T17:34:09.779Z,47.57
2023-03-28T17:38:11.960Z,47.65
2023-03-28T17:42:13.992Z,47.88
2023-03-28T17:46:16.348Z,48.42
2023-03-28T17:50:18.474Z,48.47
2023-03-28T17:54:20.530Z,48.43
2023-03-28T17:58:23.362Z,48.89
2023-03-28T18:02:25.638Z,48.52
2023-03-28T18:06:40.531Z,48.54
2023-03-28T18:10:43.389Z,48.43
2023-03-28T18:14:45.827Z,48.62
2023-03-28T18:18:47.976Z,48.74
2023-03-28T18:22:50.208Z,48.70
2023-03-28T18:26:52.264Z,48.96
2023-03-28T18:30:54.341Z,49.09
2023-03-28T18:34:56.456Z,48.61
2023-03-28T18:38:58.716Z,48.64
2023-03-28T18:43:01.310Z,48.46
2023-03-28T18:47:05.176Z,48.34
2023-03-28T18:51:07.781Z,48.39
2023-03-28T18:55:12.012Z,48.34
2023-03-28T18:59:14.148Z,48.62
2023-03-28T19:03:17.225Z,48.44
2023-03-28T19:07:19.657Z,48.06
2023-03-28T19:11:22.517Z,48.12
2023-03-28T19:15:25.170Z,47.81
2023-03-28T19:19:27.549Z,47.66
2023-03-28T19:23:29.710Z,48.02
2023-03-28T19:27:32.285Z,48.02
2023-03-28T19:31:34.317Z,48.20
2023-03-28T19:35:36.416Z,48.41
2023-03-28T19:39:38.439Z,48.37
2023-03-28T19:43:40.805Z,48.25
2023-03-28T19:47:42.863Z,47.93
2023-03-28T19:51:44.978Z,48.29
2023-03-28T19:55:58.766Z,48.48
2023-03-28T20:00:01.735Z,48.64
2023-03-28T20:04:04.363Z,48.78
2023-03-28T20:08:06.586Z,49.03
2023-03-28T20:12:08.599Z,51.20
2023-03-28T20:16:12.538Z,48.36
2023-03-28T20:20:15.245Z,47.94
2023-03-28T20:24:18.122Z,47.55
2023-03-28T20:28:24.553Z,48.54
2023-03-28T20:32:27.140Z,49.80
2023-03-28T20:36:32.645Z,50.99
2023-03-28T20:40:35.052Z,51.63
2023-03-28T20:44:41.864Z,52.28
2023-03-28T20:48:46.344Z,53.07
2023-03-28T20:52:48.821Z,53.06
2023-03-28T20:56:51.439Z,53.24
2023-03-28T21:00:58.114Z,54.61
2023-03-28T21:05:02.173Z,55.61
2023-03-28T21:09:07.733Z,56.28
2023-03-28T21:13:09.867Z,57.41
2023-03-28T21:17:21.929Z,57.74
2023-03-28T21:21:25.028Z,58.17
2023-03-28T21:25:27.574Z,58.60
2023-03-28T21:29:30.095Z,59.01
2023-03-28T21:33:32.275Z,59.39
2023-03-28T21:37:34.359Z,59.74
2023-03-28T21:41:38.034Z,59.82
2023-03-28T21:45:42.879Z,60.10
2023-03-28T21:49:45.935Z,60.23
2023-03-28T21:53:48.110Z,60.43
2023-03-28T21:57:50.299Z,60.65
2023-03-28T22:01:54.020Z,62.04
2023-03-28T22:05:56.327Z,63.75
2023-03-28T22:10:01.265Z,64.70
2023-03-28T22:14:04.854Z,65.54
2023-03-28T22:18:09.240Z,66.83
2023-03-28T22:22:11.529Z,67.93
2023-03-28T22:26:13.672Z,68.82
2023-03-28T22:30:15.763Z,69.74
2023-03-28T22:34:20.755Z,73.34
2023-03-28T22:38:22.886Z,72.02
2023-03-28T22:42:25.540Z,72.62
2023-03-28T22:46:28.939Z,72.46
2023-03-28T22:50:33.580Z,73.68
2023-03-28T22:54:37.008Z,73.28
2023-03-28T22:58:39.034Z,73.66
2023-03-28T23:02:41.561Z,73.73
2023-03-28T23:06:44.710Z,74.06
2023-03-28T23:10:47.329Z,74.84
2023-03-28T23:14:49.388Z,75.07
2023-03-28T23:18:51.371Z,75.40
2023-03-28T23:22:56.324Z,75.46
2023-03-28T23:26:58.508Z,75.09
2023-03-28T23:31:01.249Z,75.77
2023-03-28T23:35:04.062Z,76.07
2023-03-28T23:39:06.432Z,76.65
2023-03-28T23:43:08.909Z,76.34
2023-03-28T23:47:12.454Z,76.03
2023-03-28T23:51:15.184Z,76.05
2023-03-28T23:55:17.389Z,75.82
2023-03-28T23:59:19.388Z,75.23
